sensor_id;sensor_type;location;lat;lon;timestamp;temperature;humidity
80426;DHT22;69766;51.476;5.704;2023-05-07T00:00:48;13.70;99.90
80426;DHT22;69766;51.476;5.704;2023-05-07T00:03:15;13.70;99.90
80426;DHT22;69766;51.476;5.704;2023-05-07T00:05:40;13.70;99.90
80426;DHT22;69766;51.476;5.704;2023-05-07T00:08:06;13.70;99.90
80426;DHT22;69766;51.476;5.704;2023-05-07T00:10:32;13.80;99.90
80426;DHT22;69766;51.476;5.704;2023-05-07T00:12:58;13.80;99.90
80426;DHT22;69766;51.476;5.704;2023-05-07T00:15:23;13.80;99.90
80426;DHT22;69766;51.476;5.704;2023-05-07T00:17:49;13.80;99.90
80426;DHT22;69766;51.476;5.704;2023-05-07T00:20:15;13.90;99.90
80426;DHT22;69766;51.476;5.704;2023-05-07T00:22:44;13.90;99.90
80426;DHT22;69766;51.476;5.704;2023-05-07T00:25:10;13.90;99.90
80426;DHT22;69766;51.476;5.704;2023-05-07T00:27:35;13.90;99.90
80426;DHT22;69766;51.476;5.704;2023-05-07T00:30:01;13.90;99.90
80426;DHT22;69766;51.476;5.704;2023-05-07T00:32:27;13.90;99.90
80426;DHT22;69766;51.476;5.704;2023-05-07T00:34:53;13.90;99.90
80426;DHT22;69766;51.476;5.704;2023-05-07T00:37:18;13.90;99.90
80426;DHT22;69766;51.476;5.704;2023-05-07T00:39:44;13.90;99.90
80426;DHT22;69766;51.476;5.704;2023-05-07T00:42:10;13.90;99.90
80426;DHT22;69766;51.476;5.704;2023-05-07T00:44:36;13.80;99.90
80426;DHT22;69766;51.476;5.704;2023-05-07T00:47:03;13.80;99.90
80426;DHT22;69766;51.476;5.704;2023-05-07T00:49:46;13.80;99.90
80426;DHT22;69766;51.476;5.704;2023-05-07T00:52:17;13.80;99.90
80426;DHT22;69766;51.476;5.704;2023-05-07T00:54:48;13.80;99.90
80426;DHT22;69766;51.476;5.704;2023-05-07T00:57:14;13.70;99.90
80426;DHT22;69766;51.476;5.704;2023-05-07T00:59:41;13.50;99.90
80426;DHT22;69766;51.476;5.704;2023-05-07T01:02:07;13.50;99.90
80426;DHT22;69766;51.476;5.704;2023-05-07T01:04:33;13.50;99.90
80426;DHT22;69766;51.476;5.704;2023-05-07T01:07:02;13.50;99.90
80426;DHT22;69766;51.476;5.704;2023-05-07T01:09:28;13.50;99.90
80426;DHT22;69766;51.476;5.704;2023-05-07T01:11:55;13.50;99.90
80426;DHT22;69766;51.476;5.704;2023-05-07T01:14:23;13.40;99.90
80426;DHT22;69766;51.476;5.704;2023-05-07T01:16:48;13.50;99.90
80426;DHT22;69766;51.476;5.704;2023-05-07T01:19:19;13.40;99.90
80426;DHT22;69766;51.476;5.704;2023-05-07T01:21:48;13.50;99.90
80426;DHT22;69766;51.476;5.704;2023-05-07T01:24:15;13.60;99.90
80426;DHT22;69766;51.476;5.704;2023-05-07T01:26:43;13.70;99.90
80426;DHT22;69766;51.476;5.704;2023-05-07T01:29:15;13.70;99.90
80426;DHT22;69766;51.476;5.704;2023-05-07T01:31:44;13.70;99.90
80426;DHT22;69766;51.476;5.704;2023-05-07T01:34:11;13.70;99.90
80426;DHT22;69766;51.476;5.704;2023-05-07T01:36:39;13.70;99.90
80426;DHT22;69766;51.476;5.704;2023-05-07T01:39:06;13.60;99.90
80426;DHT22;69766;51.476;5.704;2023-05-07T01:41:32;13.60;99.90
80426;DHT22;69766;51.476;5.704;2023-05-07T01:43:58;13.70;99.90
80426;DHT22;69766;51.476;5.704;2023-05-07T01:46:25;13.60;99.90
80426;DHT22;69766;51.476;5.704;2023-05-07T01:48:54;13.60;99.90
80426;DHT22;69766;51.476;5.704;2023-05-07T01:51:23;13.60;99.90
80426;DHT22;69766;51.476;5.704;2023-05-07T01:53:49;13.60;99.90
80426;DHT22;69766;51.476;5.704;2023-05-07T01:56:19;13.60;99.90
80426;DHT22;69766;51.476;5.704;2023-05-07T01:58:45;13.60;99.90
80426;DHT22;69766;51.476;5.704;2023-05-07T02:01:13;13.50;99.90
80426;DHT22;69766;51.476;5.704;2023-05-07T02:03:39;13.60;99.90
80426;DHT22;69766;51.476;5.704;2023-05-07T02:06:04;13.60;99.90
80426;DHT22;69766;51.476;5.704;2023-05-07T02:08:39;13.50;99.90
80426;DHT22;69766;51.476;5.704;2023-05-07T02:11:05;13.60;99.90
80426;DHT22;69766;51.476;5.704;2023-05-07T02:13:32;13.60;99.90
80426;DHT22;69766;51.476;5.704;2023-05-07T02:15:59;13.50;99.90
80426;DHT22;69766;51.476;5.704;2023-05-07T02:18:27;13.60;99.90
80426;DHT22;69766;51.476;5.704;2023-05-07T02:20:56;13.60;99.90
80426;DHT22;69766;51.476;5.704;2023-05-07T02:23:21;13.50;99.90
80426;DHT22;69766;51.476;5.704;2023-05-07T02:25:47;13.50;99.90
80426;DHT22;69766;51.476;5.704;2023-05-07T02:28:13;13.50;99.90
80426;DHT22;69766;51.476;5.704;2023-05-07T02:30:39;13.50;99.90
80426;DHT22;69766;51.476;5.704;2023-05-07T02:33:05;13.50;99.90
80426;DHT22;69766;51.476;5.704;2023-05-07T02:35:32;13.40;99.90
80426;DHT22;69766;51.476;5.704;2023-05-07T02:37:58;13.40;99.90
80426;DHT22;69766;51.476;5.704;2023-05-07T02:40:24;13.40;99.90
80426;DHT22;69766;51.476;5.704;2023-05-07T02:42:49;13.40;99.90
80426;DHT22;69766;51.476;5.704;2023-05-07T02:45:15;13.50;99.90
80426;DHT22;69766;51.476;5.704;2023-05-07T02:47:41;13.40;99.90
80426;DHT22;69766;51.476;5.704;2023-05-07T02:50:07;13.40;99.90
80426;DHT22;69766;51.476;5.704;2023-05-07T02:52:33;13.40;99.90
80426;DHT22;69766;51.476;5.704;2023-05-07T02:54:58;13.40;99.90
80426;DHT22;69766;51.476;5.704;2023-05-07T02:57:24;13.50;99.90
80426;DHT22;69766;51.476;5.704;2023-05-07T02:59:50;13.50;99.90
80426;DHT22;69766;51.476;5.704;2023-05-07T03:02:19;13.50;99.90
80426;DHT22;69766;51.476;5.704;2023-05-07T03:04:45;13.40;99.90
80426;DHT22;69766;51.476;5.704;2023-05-07T03:07:11;13.40;99.90
80426;DHT22;69766;51.476;5.704;2023-05-07T03:09:37;13.40;99.90
80426;DHT22;69766;51.476;5.704;2023-05-07T03:12:03;13.50;99.90
80426;DHT22;69766;51.476;5.704;2023-05-07T03:14:28;13.40;99.90
80426;DHT22;69766;51.476;5.704;2023-05-07T03:16:54;13.40;99.90
80426;DHT22;69766;51.476;5.704;2023-05-07T03:19:20;13.30;99.90
80426;DHT22;69766;51.476;5.704;2023-05-07T03:21:46;13.30;99.90
80426;DHT22;69766;51.476;5.704;2023-05-07T03:24:11;13.40;99.90
80426;DHT22;69766;51.476;5.704;2023-05-07T03:26:37;13.40;99.90
80426;DHT22;69766;51.476;5.704;2023-05-07T03:29:03;13.50;99.90
80426;DHT22;69766;51.476;5.704;2023-05-07T03:31:29;13.50;99.90
80426;DHT22;69766;51.476;5.704;2023-05-07T03:33:57;13.40;99.90
80426;DHT22;69766;51.476;5.704;2023-05-07T03:36:23;13.40;99.90
80426;DHT22;69766;51.476;5.704;2023-05-07T03:38:49;13.40;99.90
80426;DHT22;69766;51.476;5.704;2023-05-07T03:41:15;13.30;99.90
80426;DHT22;69766;51.476;5.704;2023-05-07T03:43:41;13.30;99.90
80426;DHT22;69766;51.476;5.704;2023-05-07T03:46:06;13.30;99.90
80426;DHT22;69766;51.476;5.704;2023-05-07T03:48:32;13.30;99.90
80426;DHT22;69766;51.476;5.704;2023-05-07T03:50:58;13.30;99.90
80426;DHT22;69766;51.476;5.704;2023-05-07T03:53:24;13.30;99.90
80426;DHT22;69766;51.476;5.704;2023-05-07T03:55:50;13.30;99.90
80426;DHT22;69766;51.476;5.704;2023-05-07T03:58:16;13.30;99.90
80426;DHT22;69766;51.476;5.704;2023-05-07T04:00:48;13.30;99.90
80426;DHT22;69766;51.476;5.704;2023-05-07T04:03:16;13.40;99.90
80426;DHT22;69766;51.476;5.704;2023-05-07T04:05:42;13.30;99.90
80426;DHT22;69766;51.476;5.704;2023-05-07T04:08:11;13.40;99.90
80426;DHT22;69766;51.476;5.704;2023-05-07T04:10:37;13.40;99.90
80426;DHT22;69766;51.476;5.704;2023-05-07T04:13:02;13.40;99.90
80426;DHT22;69766;51.476;5.704;2023-05-07T04:15:28;13.30;99.90
80426;DHT22;69766;51.476;5.704;2023-05-07T04:17:54;13.30;99.90
80426;DHT22;69766;51.476;5.704;2023-05-07T04:20:19;13.40;99.90
80426;DHT22;69766;51.476;5.704;2023-05-07T04:22:45;13.40;99.90
80426;DHT22;69766;51.476;5.704;2023-05-07T04:25:11;13.40;99.90
80426;DHT22;69766;51.476;5.704;2023-05-07T04:27:36;13.40;99.90
80426;DHT22;69766;51.476;5.704;2023-05-07T04:30:03;13.40;99.90
80426;DHT22;69766;51.476;5.704;2023-05-07T04:32:35;13.40;99.90
80426;DHT22;69766;51.476;5.704;2023-05-07T04:35:06;13.50;99.90
80426;DHT22;69766;51.476;5.704;2023-05-07T04:37:32;13.50;99.90
80426;DHT22;69766;51.476;5.704;2023-05-07T04:39:58;13.50;99.90
80426;DHT22;69766;51.476;5.704;2023-05-07T04:42:23;13.60;99.90
80426;DHT22;69766;51.476;5.704;2023-05-07T04:44:53;13.60;99.90
80426;DHT22;69766;51.476;5.704;2023-05-07T04:47:20;13.70;99.90
80426;DHT22;69766;51.476;5.704;2023-05-07T04:49:46;13.70;99.90
80426;DHT22;69766;51.476;5.704;2023-05-07T04:52:12;13.80;99.90
80426;DHT22;69766;51.476;5.704;2023-05-07T04:54:44;13.90;99.90
80426;DHT22;69766;51.476;5.704;2023-05-07T04:57:09;14.00;99.90
80426;DHT22;69766;51.476;5.704;2023-05-07T04:59:35;14.00;99.90
80426;DHT22;69766;51.476;5.704;2023-05-07T05:02:01;14.10;99.90
80426;DHT22;69766;51.476;5.704;2023-05-07T05:04:29;14.20;99.90
80426;DHT22;69766;51.476;5.704;2023-05-07T05:06:55;14.20;99.90
80426;DHT22;69766;51.476;5.704;2023-05-07T05:09:21;14.30;99.90
80426;DHT22;69766;51.476;5.704;2023-05-07T05:11:47;14.30;99.90
80426;DHT22;69766;51.476;5.704;2023-05-07T05:14:12;14.30;99.90
80426;DHT22;69766;51.476;5.704;2023-05-07T05:16:38;14.30;99.70
80426;DHT22;69766;51.476;5.704;2023-05-07T05:19:04;14.30;99.80
80426;DHT22;69766;51.476;5.704;2023-05-07T05:21:30;14.30;99.80
80426;DHT22;69766;51.476;5.704;2023-05-07T05:23:56;14.30;99.70
80426;DHT22;69766;51.476;5.704;2023-05-07T05:26:22;14.30;99.70
80426;DHT22;69766;51.476;5.704;2023-05-07T05:28:47;14.40;99.80
80426;DHT22;69766;51.476;5.704;2023-05-07T05:31:13;14.30;99.60
80426;DHT22;69766;51.476;5.704;2023-05-07T05:33:39;14.40;99.90
80426;DHT22;69766;51.476;5.704;2023-05-07T05:36:06;14.40;99.90
80426;DHT22;69766;51.476;5.704;2023-05-07T05:38:32;14.40;99.90
80426;DHT22;69766;51.476;5.704;2023-05-07T05:40:58;14.50;99.90
80426;DHT22;69766;51.476;5.704;2023-05-07T05:43:23;14.60;99.50
80426;DHT22;69766;51.476;5.704;2023-05-07T05:45:49;14.70;99.40
80426;DHT22;69766;51.476;5.704;2023-05-07T05:48:15;14.80;99.20
80426;DHT22;69766;51.476;5.704;2023-05-07T05:50:42;14.80;99.40
80426;DHT22;69766;51.476;5.704;2023-05-07T05:53:08;14.80;99.40
80426;DHT22;69766;51.476;5.704;2023-05-07T05:55:34;14.90;99.20
80426;DHT22;69766;51.476;5.704;2023-05-07T05:58:00;15.00;98.80
80426;DHT22;69766;51.476;5.704;2023-05-07T06:00:27;15.10;98.90
80426;DHT22;69766;51.476;5.704;2023-05-07T06:02:53;15.10;98.50
80426;DHT22;69766;51.476;5.704;2023-05-07T06:05:18;15.10;98.30
80426;DHT22;69766;51.476;5.704;2023-05-07T06:07:46;15.10;98.50
80426;DHT22;69766;51.476;5.704;2023-05-07T06:10:12;15.30;98.30
80426;DHT22;69766;51.476;5.704;2023-05-07T06:12:38;15.40;98.10
80426;DHT22;69766;51.476;5.704;2023-05-07T06:15:04;15.40;98.00
80426;DHT22;69766;51.476;5.704;2023-05-07T06:17:30;15.30;98.30
80426;DHT22;69766;51.476;5.704;2023-05-07T06:19:55;15.30;98.60
80426;DHT22;69766;51.476;5.704;2023-05-07T06:22:21;15.50;98.20
80426;DHT22;69766;51.476;5.704;2023-05-07T06:24:47;15.60;98.10
80426;DHT22;69766;51.476;5.704;2023-05-07T06:27:13;15.70;97.20
80426;DHT22;69766;51.476;5.704;2023-05-07T06:29:38;15.90;97.30
80426;DHT22;69766;51.476;5.704;2023-05-07T06:32:11;16.00;96.50
80426;DHT22;69766;51.476;5.704;2023-05-07T06:34:37;16.20;96.30
80426;DHT22;69766;51.476;5.704;2023-05-07T06:37:02;16.30;95.80
80426;DHT22;69766;51.476;5.704;2023-05-07T06:39:28;16.40;95.50
80426;DHT22;69766;51.476;5.704;2023-05-07T06:41:54;16.50;95.00
80426;DHT22;69766;51.476;5.704;2023-05-07T06:44:20;16.50;94.30
80426;DHT22;69766;51.476;5.704;2023-05-07T06:46:45;16.60;95.30
80426;DHT22;69766;51.476;5.704;2023-05-07T06:49:14;16.50;94.40
80426;DHT22;69766;51.476;5.704;2023-05-07T06:51:40;16.60;95.40
80426;DHT22;69766;51.476;5.704;2023-05-07T06:54:06;16.60;95.00
80426;DHT22;69766;51.476;5.704;2023-05-07T06:56:32;16.50;94.70
80426;DHT22;69766;51.476;5.704;2023-05-07T06:59:00;16.70;94.70
80426;DHT22;69766;51.476;5.704;2023-05-07T07:01:25;16.60;95.00
80426;DHT22;69766;51.476;5.704;2023-05-07T07:03:51;16.70;94.70
80426;DHT22;69766;51.476;5.704;2023-05-07T07:06:17;16.80;94.60
80426;DHT22;69766;51.476;5.704;2023-05-07T07:08:42;16.90;95.20
80426;DHT22;69766;51.476;5.704;2023-05-07T07:11:09;17.10;95.10
80426;DHT22;69766;51.476;5.704;2023-05-07T07:13:37;17.10;94.20
80426;DHT22;69766;51.476;5.704;2023-05-07T07:16:03;17.40;94.40
80426;DHT22;69766;51.476;5.704;2023-05-07T07:18:29;17.30;92.60
80426;DHT22;69766;51.476;5.704;2023-05-07T07:20:54;17.60;92.70
80426;DHT22;69766;51.476;5.704;2023-05-07T07:23:20;17.40;93.70
80426;DHT22;69766;51.476;5.704;2023-05-07T07:25:46;17.60;93.70
80426;DHT22;69766;51.476;5.704;2023-05-07T07:28:12;17.50;93.30
80426;DHT22;69766;51.476;5.704;2023-05-07T07:30:38;17.70;93.10
80426;DHT22;69766;51.476;5.704;2023-05-07T07:33:04;17.50;92.00
80426;DHT22;69766;51.476;5.704;2023-05-07T07:35:33;17.60;92.80
80426;DHT22;69766;51.476;5.704;2023-05-07T07:37:59;17.60;93.10
80426;DHT22;69766;51.476;5.704;2023-05-07T07:40:25;17.60;93.30
80426;DHT22;69766;51.476;5.704;2023-05-07T07:42:53;17.50;92.90
80426;DHT22;69766;51.476;5.704;2023-05-07T07:45:18;17.60;92.90
80426;DHT22;69766;51.476;5.704;2023-05-07T07:47:44;17.70;92.60
80426;DHT22;69766;51.476;5.704;2023-05-07T07:50:10;17.70;93.00
80426;DHT22;69766;51.476;5.704;2023-05-07T07:52:36;17.70;93.20
80426;DHT22;69766;51.476;5.704;2023-05-07T07:55:02;17.80;93.50
80426;DHT22;69766;51.476;5.704;2023-05-07T07:57:28;17.90;93.20
80426;DHT22;69766;51.476;5.704;2023-05-07T07:59:54;17.60;93.80
80426;DHT22;69766;51.476;5.704;2023-05-07T08:02:20;17.70;93.30
80426;DHT22;69766;51.476;5.704;2023-05-07T08:04:45;17.60;93.20
80426;DHT22;69766;51.476;5.704;2023-05-07T08:07:11;17.80;93.10
80426;DHT22;69766;51.476;5.704;2023-05-07T08:09:38;18.10;92.90
80426;DHT22;69766;51.476;5.704;2023-05-07T08:12:07;18.60;92.40
80426;DHT22;69766;51.476;5.704;2023-05-07T08:14:34;19.20;88.20
80426;DHT22;69766;51.476;5.704;2023-05-07T08:17:00;19.60;89.60
80426;DHT22;69766;51.476;5.704;2023-05-07T08:19:26;19.60;88.30
80426;DHT22;69766;51.476;5.704;2023-05-07T08:21:52;19.60;87.40
80426;DHT22;69766;51.476;5.704;2023-05-07T08:24:17;19.80;87.90
80426;DHT22;69766;51.476;5.704;2023-05-07T08:26:44;20.10;86.80
80426;DHT22;69766;51.476;5.704;2023-05-07T08:29:10;20.20;87.20
80426;DHT22;69766;51.476;5.704;2023-05-07T08:31:36;20.30;82.70
80426;DHT22;69766;51.476;5.704;2023-05-07T08:34:04;19.90;84.30
80426;DHT22;69766;51.476;5.704;2023-05-07T08:36:30;19.80;84.30
80426;DHT22;69766;51.476;5.704;2023-05-07T08:38:55;20.10;85.00
80426;DHT22;69766;51.476;5.704;2023-05-07T08:41:21;20.00;84.20
80426;DHT22;69766;51.476;5.704;2023-05-07T08:43:48;19.90;83.90
80426;DHT22;69766;51.476;5.704;2023-05-07T08:46:21;19.50;87.50
80426;DHT22;69766;51.476;5.704;2023-05-07T08:48:51;19.70;88.00
80426;DHT22;69766;51.476;5.704;2023-05-07T08:51:21;20.00;83.40
80426;DHT22;69766;51.476;5.704;2023-05-07T08:53:48;20.10;85.30
80426;DHT22;69766;51.476;5.704;2023-05-07T08:56:14;20.20;82.80
80426;DHT22;69766;51.476;5.704;2023-05-07T08:58:44;20.40;83.10
80426;DHT22;69766;51.476;5.704;2023-05-07T09:01:15;20.50;80.90
80426;DHT22;69766;51.476;5.704;2023-05-07T09:03:44;20.30;82.00
80426;DHT22;69766;51.476;5.704;2023-05-07T09:06:10;20.10;82.40
80426;DHT22;69766;51.476;5.704;2023-05-07T09:08:35;19.90;82.20
80426;DHT22;69766;51.476;5.704;2023-05-07T09:11:02;20.80;85.60
80426;DHT22;69766;51.476;5.704;2023-05-07T09:13:28;21.40;80.70
80426;DHT22;69766;51.476;5.704;2023-05-07T09:15:54;21.40;77.60
80426;DHT22;69766;51.476;5.704;2023-05-07T09:18:20;21.30;76.60
80426;DHT22;69766;51.476;5.704;2023-05-07T09:20:46;21.40;78.80
80426;DHT22;69766;51.476;5.704;2023-05-07T09:23:12;21.00;79.30
80426;DHT22;69766;51.476;5.704;2023-05-07T09:25:37;20.50;82.00
80426;DHT22;69766;51.476;5.704;2023-05-07T09:28:04;20.70;80.50
80426;DHT22;69766;51.476;5.704;2023-05-07T09:30:35;20.80;80.20
80426;DHT22;69766;51.476;5.704;2023-05-07T09:33:03;21.10;79.80
80426;DHT22;69766;51.476;5.704;2023-05-07T09:35:30;21.20;81.60
80426;DHT22;69766;51.476;5.704;2023-05-07T09:37:57;21.30;78.90
80426;DHT22;69766;51.476;5.704;2023-05-07T09:40:24;20.90;81.40
80426;DHT22;69766;51.476;5.704;2023-05-07T09:42:50;21.10;82.10
80426;DHT22;69766;51.476;5.704;2023-05-07T09:45:26;20.90;79.50
80426;DHT22;69766;51.476;5.704;2023-05-07T09:47:58;21.10;79.30
80426;DHT22;69766;51.476;5.704;2023-05-07T09:50:27;21.20;77.60
80426;DHT22;69766;51.476;5.704;2023-05-07T09:52:54;21.50;77.70
80426;DHT22;69766;51.476;5.704;2023-05-07T09:55:22;21.70;77.60
80426;DHT22;69766;51.476;5.704;2023-05-07T09:57:52;21.60;73.70
80426;DHT22;69766;51.476;5.704;2023-05-07T10:00:22;21.40;78.00
80426;DHT22;69766;51.476;5.704;2023-05-07T10:02:49;21.90;75.50
80426;DHT22;69766;51.476;5.704;2023-05-07T10:05:18;22.00;76.20
80426;DHT22;69766;51.476;5.704;2023-05-07T10:07:44;21.60;76.50
80426;DHT22;69766;51.476;5.704;2023-05-07T10:10:10;21.50;73.50
80426;DHT22;69766;51.476;5.704;2023-05-07T10:12:36;21.60;75.70
80426;DHT22;69766;51.476;5.704;2023-05-07T10:15:10;22.40;74.20
80426;DHT22;69766;51.476;5.704;2023-05-07T10:17:36;22.30;72.10
80426;DHT22;69766;51.476;5.704;2023-05-07T10:20:02;22.60;71.50
80426;DHT22;69766;51.476;5.704;2023-05-07T10:22:49;23.20;69.90
80426;DHT22;69766;51.476;5.704;2023-05-07T10:25:23;23.20;68.20
80426;DHT22;69766;51.476;5.704;2023-05-07T10:27:51;23.00;70.90
80426;DHT22;69766;51.476;5.704;2023-05-07T10:33:12;23.20;71.10
80426;DHT22;69766;51.476;5.704;2023-05-07T10:35:42;24.00;68.20
80426;DHT22;69766;51.476;5.704;2023-05-07T10:38:09;24.30;68.00
80426;DHT22;69766;51.476;5.704;2023-05-07T10:40:35;24.20;66.20
80426;DHT22;69766;51.476;5.704;2023-05-07T10:43:05;24.30;63.80
80426;DHT22;69766;51.476;5.704;2023-05-07T10:45:31;24.60;62.50
80426;DHT22;69766;51.476;5.704;2023-05-07T10:48:10;24.20;62.90
80426;DHT22;69766;51.476;5.704;2023-05-07T10:50:40;24.10;63.40
80426;DHT22;69766;51.476;5.704;2023-05-07T10:53:26;24.40;66.10
80426;DHT22;69766;51.476;5.704;2023-05-07T10:58:43;25.10;62.90
80426;DHT22;69766;51.476;5.704;2023-05-07T11:01:09;25.30;60.60
80426;DHT22;69766;51.476;5.704;2023-05-07T11:04:13;24.60;58.90
80426;DHT22;69766;51.476;5.704;2023-05-07T11:06:40;25.00;59.60
80426;DHT22;69766;51.476;5.704;2023-05-07T11:09:05;26.00;57.30
80426;DHT22;69766;51.476;5.704;2023-05-07T11:11:48;25.80;57.40
80426;DHT22;69766;51.476;5.704;2023-05-07T11:14:45;25.90;61.00
80426;DHT22;69766;51.476;5.704;2023-05-07T11:17:11;25.30;61.10
80426;DHT22;69766;51.476;5.704;2023-05-07T11:19:56;24.90;60.00
80426;DHT22;69766;51.476;5.704;2023-05-07T11:25:00;24.20;63.60
80426;DHT22;69766;51.476;5.704;2023-05-07T11:27:27;23.40;64.70
80426;DHT22;69766;51.476;5.704;2023-05-07T11:29:53;23.00;65.60
80426;DHT22;69766;51.476;5.704;2023-05-07T11:32:26;22.70;64.50
80426;DHT22;69766;51.476;5.704;2023-05-07T11:34:52;22.60;67.10
80426;DHT22;69766;51.476;5.704;2023-05-07T11:37:19;22.90;65.70
80426;DHT22;69766;51.476;5.704;2023-05-07T11:39:45;22.90;71.50
80426;DHT22;69766;51.476;5.704;2023-05-07T11:42:34;22.90;64.10
80426;DHT22;69766;51.476;5.704;2023-05-07T11:45:00;23.40;64.10
80426;DHT22;69766;51.476;5.704;2023-05-07T11:47:30;23.60;59.90
80426;DHT22;69766;51.476;5.704;2023-05-07T11:49:56;23.80;61.70
80426;DHT22;69766;51.476;5.704;2023-05-07T11:52:23;23.70;62.00
80426;DHT22;69766;51.476;5.704;2023-05-07T11:54:53;23.80;61.40
80426;DHT22;69766;51.476;5.704;2023-05-07T11:57:20;24.10;59.70
80426;DHT22;69766;51.476;5.704;2023-05-07T11:59:47;23.90;64.80
80426;DHT22;69766;51.476;5.704;2023-05-07T12:02:17;23.40;63.70
80426;DHT22;69766;51.476;5.704;2023-05-07T12:04:43;23.00;66.90
80426;DHT22;69766;51.476;5.704;2023-05-07T12:07:18;22.90;68.50
80426;DHT22;69766;51.476;5.704;2023-05-07T12:09:45;22.70;61.70
80426;DHT22;69766;51.476;5.704;2023-05-07T12:12:11;22.90;63.40
80426;DHT22;69766;51.476;5.704;2023-05-07T12:14:41;23.20;65.70
80426;DHT22;69766;51.476;5.704;2023-05-07T12:17:08;23.10;64.80
80426;DHT22;69766;51.476;5.704;2023-05-07T12:19:35;23.50;65.40
80426;DHT22;69766;51.476;5.704;2023-05-07T12:22:02;23.60;61.20
80426;DHT22;69766;51.476;5.704;2023-05-07T12:24:28;23.70;62.50
80426;DHT22;69766;51.476;5.704;2023-05-07T12:26:54;23.70;59.60
80426;DHT22;69766;51.476;5.704;2023-05-07T12:29:23;23.30;62.90
80426;DHT22;69766;51.476;5.704;2023-05-07T12:31:50;23.00;64.30
80426;DHT22;69766;51.476;5.704;2023-05-07T12:34:16;22.80;63.00
80426;DHT22;69766;51.476;5.704;2023-05-07T12:36:41;22.70;65.50
80426;DHT22;69766;51.476;5.704;2023-05-07T12:39:08;22.30;65.00
80426;DHT22;69766;51.476;5.704;2023-05-07T12:41:57;22.20;68.40
80426;DHT22;69766;51.476;5.704;2023-05-07T12:44:25;22.00;65.80
80426;DHT22;69766;51.476;5.704;2023-05-07T12:46:51;21.90;67.70
80426;DHT22;69766;51.476;5.704;2023-05-07T12:49:17;21.80;71.80
80426;DHT22;69766;51.476;5.704;2023-05-07T12:51:43;21.70;75.10
80426;DHT22;69766;51.476;5.704;2023-05-07T12:54:09;21.60;71.00
80426;DHT22;69766;51.476;5.704;2023-05-07T12:56:39;21.40;72.50
80426;DHT22;69766;51.476;5.704;2023-05-07T12:59:05;21.40;74.20
80426;DHT22;69766;51.476;5.704;2023-05-07T13:01:31;21.30;71.60
80426;DHT22;69766;51.476;5.704;2023-05-07T13:04:03;21.20;70.80
80426;DHT22;69766;51.476;5.704;2023-05-07T13:06:29;20.90;73.10
80426;DHT22;69766;51.476;5.704;2023-05-07T13:08:55;20.80;69.70
80426;DHT22;69766;51.476;5.704;2023-05-07T13:11:21;20.30;71.50
80426;DHT22;69766;51.476;5.704;2023-05-07T13:13:50;19.60;73.30
80426;DHT22;69766;51.476;5.704;2023-05-07T13:16:16;19.20;75.80
80426;DHT22;69766;51.476;5.704;2023-05-07T13:18:42;18.80;78.20
80426;DHT22;69766;51.476;5.704;2023-05-07T13:21:10;18.50;79.40
80426;DHT22;69766;51.476;5.704;2023-05-07T13:23:38;18.40;80.20
80426;DHT22;69766;51.476;5.704;2023-05-07T13:26:04;18.00;84.20
80426;DHT22;69766;51.476;5.704;2023-05-07T13:28:29;17.80;87.40
80426;DHT22;69766;51.476;5.704;2023-05-07T13:30:56;17.40;90.70
80426;DHT22;69766;51.476;5.704;2023-05-07T13:33:21;17.00;90.80
80426;DHT22;69766;51.476;5.704;2023-05-07T13:35:47;16.70;92.20
80426;DHT22;69766;51.476;5.704;2023-05-07T13:38:13;16.50;93.50
80426;DHT22;69766;51.476;5.704;2023-05-07T13:40:41;16.50;93.50
80426;DHT22;69766;51.476;5.704;2023-05-07T13:43:06;16.30;93.90
80426;DHT22;69766;51.476;5.704;2023-05-07T13:45:33;16.10;95.70
80426;DHT22;69766;51.476;5.704;2023-05-07T13:47:58;16.00;96.40
80426;DHT22;69766;51.476;5.704;2023-05-07T13:50:24;16.00;95.70
80426;DHT22;69766;51.476;5.704;2023-05-07T13:52:52;16.10;95.30
80426;DHT22;69766;51.476;5.704;2023-05-07T13:55:18;16.10;96.00
80426;DHT22;69766;51.476;5.704;2023-05-07T13:57:57;16.10;95.40
80426;DHT22;69766;51.476;5.704;2023-05-07T14:00:29;16.10;94.90
80426;DHT22;69766;51.476;5.704;2023-05-07T14:02:56;15.90;96.10
80426;DHT22;69766;51.476;5.704;2023-05-07T14:05:25;15.90;96.80
80426;DHT22;69766;51.476;5.704;2023-05-07T14:07:54;15.90;97.70
80426;DHT22;69766;51.476;5.704;2023-05-07T14:10:30;16.00;97.60
80426;DHT22;69766;51.476;5.704;2023-05-07T14:12:57;16.10;97.60
80426;DHT22;69766;51.476;5.704;2023-05-07T14:15:23;15.90;97.50
80426;DHT22;69766;51.476;5.704;2023-05-07T14:17:48;15.80;98.60
80426;DHT22;69766;51.476;5.704;2023-05-07T14:20:14;15.70;99.90
80426;DHT22;69766;51.476;5.704;2023-05-07T14:22:46;15.80;99.40
80426;DHT22;69766;51.476;5.704;2023-05-07T14:25:27;15.90;99.90
80426;DHT22;69766;51.476;5.704;2023-05-07T14:27:53;15.90;99.10
80426;DHT22;69766;51.476;5.704;2023-05-07T14:30:19;15.80;99.30
80426;DHT22;69766;51.476;5.704;2023-05-07T14:32:47;16.00;98.90
80426;DHT22;69766;51.476;5.704;2023-05-07T14:35:16;16.10;97.70
80426;DHT22;69766;51.476;5.704;2023-05-07T14:37:43;16.10;97.60
80426;DHT22;69766;51.476;5.704;2023-05-07T14:40:12;16.20;96.80
80426;DHT22;69766;51.476;5.704;2023-05-07T14:42:38;16.30;96.90
80426;DHT22;69766;51.476;5.704;2023-05-07T14:45:04;16.40;96.50
80426;DHT22;69766;51.476;5.704;2023-05-07T14:47:30;16.50;95.70
80426;DHT22;69766;51.476;5.704;2023-05-07T14:49:56;16.60;95.60
80426;DHT22;69766;51.476;5.704;2023-05-07T14:52:22;16.60;96.00
80426;DHT22;69766;51.476;5.704;2023-05-07T14:54:48;16.70;96.30
80426;DHT22;69766;51.476;5.704;2023-05-07T14:57:14;16.80;96.20
80426;DHT22;69766;51.476;5.704;2023-05-07T14:59:41;17.00;95.20
80426;DHT22;69766;51.476;5.704;2023-05-07T15:02:07;17.10;94.40
80426;DHT22;69766;51.476;5.704;2023-05-07T15:04:34;17.30;94.70
80426;DHT22;69766;51.476;5.704;2023-05-07T15:07:00;17.40;94.80
80426;DHT22;69766;51.476;5.704;2023-05-07T15:09:26;17.40;93.60
80426;DHT22;69766;51.476;5.704;2023-05-07T15:11:51;17.30;93.80
80426;DHT22;69766;51.476;5.704;2023-05-07T15:14:17;17.50;94.60
80426;DHT22;69766;51.476;5.704;2023-05-07T15:16:43;17.10;94.90
80426;DHT22;69766;51.476;5.704;2023-05-07T15:19:10;17.20;94.20
80426;DHT22;69766;51.476;5.704;2023-05-07T15:21:36;17.30;93.60
80426;DHT22;69766;51.476;5.704;2023-05-07T15:24:02;17.20;92.40
80426;DHT22;69766;51.476;5.704;2023-05-07T15:26:28;17.40;93.40
80426;DHT22;69766;51.476;5.704;2023-05-07T15:28:54;17.50;92.90
80426;DHT22;69766;51.476;5.704;2023-05-07T15:31:23;17.50;93.40
80426;DHT22;69766;51.476;5.704;2023-05-07T15:33:48;17.50;93.10
80426;DHT22;69766;51.476;5.704;2023-05-07T15:36:17;17.50;92.70
80426;DHT22;69766;51.476;5.704;2023-05-07T15:38:43;17.50;92.90